Terminal Aerodrome Forecast
Issued by NWS Pendleton, OR

Home | Current Version | Previous Version | Text Only | Print | Product List | Glossary On
Versions: 1 2 3 4 5 6 7 8 9 10 11 12 13
000
FTUS46 KPDT 050528
TAFPDT
TAF
KPDT 050528Z 0506/0606 20009KT 6SM -SHRA BKN050 OVC070
     FM050900 24011G20KT 6SM -RA BR OVC050
      TEMPO 0511/0515 4SM -RA BR BKN025 OVC035
     FM051900 28015G24KT P6SM VCSH SCT060 BKN090
     FM052100 31015G24KT P6SM FEW090 SCT120
     FM060200 29010KT P6SM SCT060 SCT200=

USA.gov is the U.S. government's official web portal to all federal, state and local government web resources and services.